KBFM/BFM METAR and TAF weather

Enter ICAO airport designator
Station Type Date Time Source
KBFM METAR 2018/04/20 08:20 UTC NOAA

KBFM 200820Z 02011G20KT 10SM CLR 13/04 A3019 RMK AO2 T01330044


Station Type Date Time Source
KBFM Decoded METAR 2018/04/20 08:20 UTC NOAA

MOBILE DOWNTOWN AIRPORT, AL, United States (KBFM) 30-38N 88-04W 20M
Apr 20, 2018 - 04:20 AM EDT / 2018.04.20 0820 UTC
Wind: from the NNE (020 degrees) at 13 MPH (11 KT) gusting to 23 MPH (20 KT):0
Visibility: 10 mile(s):0
Sky conditions: clear
Temperature: 55.9 F (13.3 C)
Dew Point: 39.9 F (4.4 C)
Relative Humidity: 54%
Pressure (altimeter): 30.19 in. Hg (1022 hPa)
ob: KBFM 200820Z 02011G20KT 10SM CLR 13/04 A3019 RMK AO2 T01330044
cycle: 8

Station Type Date Time Source
KBFM TAF 2018/04/20 06:36 UTC NOAA

TAF KBFM 200533Z 2006/2106 36011KT P6SM SCT250
FM201400 04010KT P6SM FEW250
FM210200 08007KT P6SM SKC


Example: see airport list